Time;durP1;ratioP1;P1;durP2;ratioP2;P2;SDS_P1;SDS_P2;PMS_P1;PMS_P2;Temp;Humidity;BMP_temperature;BMP_pressure;BME280_temperature;BME280_humidity;BME280_pressure;Samples;Min_cycle;Max_cycle;Signal;HPM_P1;HPM_P2
2022/02/06 00:01:02;;;;;;;6.33;4.33;;;2.60;99.90;;;3.17;75.21;98475.81;5184395;28;20233;-63
2022/02/06 00:03:36;;;;;;;4.80;4.13;;;2.50;99.90;;;3.18;75.22;98479.25;5185154;28;20226;-62
2022/02/06 00:06:09;;;;;;;3.90;3.30;;;2.50;99.90;;;3.24;75.20;98478.94;5184916;28;20563;-62
2022/02/06 00:08:42;;;;;;;4.57;3.87;;;2.60;99.90;;;3.27;75.31;98471.66;5184584;28;20224;-63
2022/02/06 00:11:16;;;;;;;4.50;3.83;;;2.60;99.90;;;3.35;75.71;98470.75;5178579;28;20612;-63
2022/02/06 00:13:49;;;;;;;6.43;4.13;;;2.70;99.90;;;3.43;75.18;98467.28;5183088;28;20222;-61
2022/02/06 00:16:22;;;;;;;4.13;3.30;;;2.70;99.90;;;3.64;75.04;98459.97;5185658;28;20236;-62
2022/02/06 00:18:55;;;;;;;3.90;3.60;;;2.90;99.90;;;3.67;74.95;98455.19;5183244;28;20584;-62
2022/02/06 00:21:30;;;;;;;4.03;3.40;;;3.00;99.90;;;3.75;74.83;98449.16;5181595;28;20222;-62
2022/02/06 00:24:06;;;;;;;6.07;3.77;;;3.10;99.90;;;3.91;73.44;98449.84;5183861;28;20568;-61
2022/02/06 00:26:53;;;;;;;3.90;3.60;;;3.20;99.90;;;3.83;73.97;98439.06;5179419;28;20214;-62
2022/02/06 00:29:37;;;;;;;3.70;3.40;;;3.20;99.90;;;3.88;73.54;98436.94;5179917;28;20248;-61
2022/02/06 00:32:21;;;;;;;4.57;3.80;;;3.30;99.90;;;4.11;72.31;98430.56;5185851;28;20229;-62
2022/02/06 00:38:11;;;;;;;5.47;3.80;;;3.50;99.90;;;4.24;72.43;98425.88;5167980;28;20219;-62
2022/02/06 00:43:33;;;;;;;3.77;3.17;;;3.60;99.90;;;4.37;71.25;98415.19;5202006;28;20556;-66
2022/02/06 00:46:08;;;;;;;5.53;4.03;;;3.60;99.90;;;4.39;71.93;98413.69;5187821;28;20667;-64
2022/02/06 00:48:45;;;;;;;4.43;3.20;;;3.70;99.90;;;4.37;70.96;98405.97;5196892;28;20235;-65
2022/02/06 00:51:26;;;;;;;4.00;3.60;;;3.70;99.90;;;4.45;70.66;98405.00;5173163;28;20228;-64
2022/02/06 00:53:59;;;;;;;3.73;3.30;;;3.80;99.90;;;4.51;70.50;98405.53;5179321;28;20233;-64
2022/02/06 00:56:34;;;;;;;3.70;3.13;;;3.80;99.90;;;4.50;70.15;98400.38;5170162;28;20239;-64
2022/02/06 00:59:08;;;;;;;4.63;3.10;;;3.90;99.90;;;4.50;70.33;98401.25;5177488;28;20227;-65
2022/02/06 01:01:42;;;;;;;4.57;3.63;;;3.90;99.90;;;4.61;70.04;98398.78;5167073;28;20230;-64
2022/02/06 01:04:16;;;;;;;4.30;3.43;;;3.90;99.90;;;4.54;70.04;98406.59;5165477;28;20228;-66
2022/02/06 01:06:49;;;;;;;5.03;3.63;;;3.90;99.90;;;4.60;69.79;98392.81;5176659;28;20719;-64
2022/02/06 01:09:22;;;;;;;4.70;3.00;;;3.90;99.90;;;4.42;70.72;98399.66;5179231;28;20214;-64
2022/02/06 01:11:56;;;;;;;3.63;3.33;;;3.80;99.90;;;4.52;70.53;98386.19;5177478;28;20230;-64
2022/02/06 01:14:44;;;;;;;6.23;3.23;;;3.80;99.90;;;4.58;69.97;98384.22;5171211;28;20558;-64
2022/02/06 01:17:25;;;;;;;4.67;2.93;;;3.80;99.90;;;4.50;70.19;98378.47;5166470;28;20252;-66
2022/02/06 01:20:02;;;;;;;3.37;3.10;;;3.80;99.90;;;4.63;69.01;98377.00;5168370;28;20273;-64
2022/02/06 01:22:38;;;;;;;4.43;3.40;;;4.00;99.90;;;4.44;70.32;98372.00;5164099;28;20596;-66
2022/02/06 01:25:15;;;;;;;6.07;3.30;;;3.90;99.90;;;4.55;70.01;98375.44;5165468;28;20222;-66
2022/02/06 01:27:55;;;;;;;5.23;3.30;;;3.90;99.90;;;4.51;70.30;98370.13;5172751;28;20229;-66
2022/02/06 01:30:40;;;;;;;3.63;3.27;;;3.80;99.90;;;4.53;70.15;98377.84;5180675;28;20230;-66
2022/02/06 01:33:17;;;;;;;3.30;3.00;;;3.90;99.90;;;4.54;70.12;98373.69;5154200;28;20235;-66
2022/02/06 01:35:56;;;;;;;5.37;3.27;;;3.90;99.90;;;4.58;69.71;98369.03;5172046;28;20230;-66
2022/02/06 01:38:36;;;;;;;3.53;3.23;;;3.90;99.90;;;4.56;70.50;98378.13;5175674;28;21042;-65
2022/02/06 01:41:17;;;;;;;5.57;3.57;;;3.90;99.90;;;4.51;70.67;98374.28;5173034;28;20234;-66
2022/02/06 01:43:55;;;;;;;6.00;3.13;;;3.80;99.90;;;4.57;70.05;98379.91;5170103;28;20238;-66
2022/02/06 01:46:42;;;;;;;6.60;3.00;;;3.90;99.90;;;4.46;70.80;98373.00;5177402;28;20687;-65
2022/02/06 02:01:10;;;;;;;6.23;3.57;;;3.80;99.90;;;4.49;70.85;98370.72;5165967;28;20595;-65
2022/02/06 02:03:51;;;;;;;3.60;3.10;;;3.80;99.90;;;4.58;70.39;98368.13;5175004;28;20220;-67
2022/02/06 02:06:54;;;;;;;5.83;3.30;;;3.90;99.90;;;4.65;69.77;98361.22;5178244;28;20236;-64
2022/02/06 02:18:43;;;;;;;4.87;3.20;;;3.90;99.90;;;4.70;70.17;98349.84;5163865;28;20226;-65
2022/02/06 02:21:42;;;;;;;3.30;3.00;;;3.90;99.90;;;4.62;69.82;98345.75;5161944;28;20225;-64
2022/02/06 02:24:30;;;;;;;3.97;3.00;;;3.90;99.90;;;4.67;69.77;98338.56;5161715;28;20695;-66
2022/02/06 02:27:14;;;;;;;3.63;3.33;;;4.00;99.90;;;4.58;69.98;98340.28;5169971;28;20223;-66
2022/02/06 02:33:08;;;;;;;5.20;3.07;;;4.00;99.90;;;4.55;70.30;98314.69;5164627;28;20227;-66
2022/02/06 02:44:56;;;;;;;6.67;3.10;;;4.10;99.90;;;4.65;70.20;98291.97;5166250;28;20230;-64
2022/02/06 02:47:29;;;;;;;5.90;2.63;;;4.10;99.90;;;4.69;69.92;98288.94;5169310;28;20221;-66
2022/02/06 02:50:09;;;;;;;3.47;3.13;;;4.00;99.90;;;4.70;70.07;98283.13;5166234;28;20226;-63
2022/02/06 02:52:54;;;;;;;3.97;3.00;;;4.00;99.90;;;4.69;69.82;98286.41;5165519;28;20324;-66
2022/02/06 02:55:50;;;;;;;7.03;3.60;;;3.90;99.90;;;4.72;69.49;98285.06;5167318;28;20226;-65
2022/02/06 02:58:28;;;;;;;5.67;3.10;;;4.00;99.90;;;4.72;69.80;98274.91;5160297;28;20229;-65
2022/02/06 03:01:07;;;;;;;6.23;3.70;;;4.00;99.90;;;4.70;69.83;98256.16;5168339;28;20684;-64
2022/02/06 03:03:42;;;;;;;7.03;3.20;;;4.10;99.90;;;4.78;69.17;98259.38;5167893;28;20215;-65
2022/02/06 03:06:15;;;;;;;3.63;3.33;;;4.20;99.90;;;4.72;69.56;98258.81;5164457;28;20281;-65
2022/02/06 03:08:50;;;;;;;4.27;3.70;;;4.20;99.90;;;4.75;69.33;98248.97;5164089;28;20225;-65
2022/02/06 03:11:24;;;;;;;5.40;3.00;;;4.20;99.90;;;4.86;68.72;98240.63;5164147;28;20225;-64
2022/02/06 03:14:04;;;;;;;4.43;3.40;;;4.20;99.90;;;4.78;68.98;98241.66;5165615;28;20225;-65
2022/02/06 03:16:44;;;;;;;6.33;3.83;;;4.20;99.90;;;4.83;69.08;98231.88;5161720;28;21612;-65
2022/02/06 03:19:18;;;;;;;4.30;3.40;;;4.20;99.90;;;4.87;68.86;98223.81;5167046;28;20597;-65
2022/02/06 03:21:52;;;;;;;5.80;3.20;;;4.20;99.90;;;4.95;68.63;98226.25;5166758;28;20223;-66
2022/02/06 03:24:28;;;;;;;4.63;3.20;;;4.20;99.90;;;4.91;68.50;98210.63;5170089;28;20217;-65
2022/02/06 03:27:03;;;;;;;4.53;3.40;;;4.20;99.90;;;4.91;68.22;98211.53;5171064;28;20222;-65
2022/02/06 03:29:36;;;;;;;5.27;3.40;;;4.30;99.90;;;4.93;68.20;98194.81;5162281;28;20324;-66
2022/02/06 03:32:09;;;;;;;5.43;3.20;;;4.30;99.90;;;4.94;68.34;98186.44;5173690;28;20222;-65
2022/02/06 03:34:43;;;;;;;6.40;3.17;;;4.40;99.90;;;5.00;68.36;98195.31;5168362;28;20233;-64
2022/02/06 03:37:18;;;;;;;4.10;3.03;;;4.40;99.90;;;5.02;68.26;98188.75;5165965;28;20227;-66
2022/02/06 03:39:53;;;;;;;4.10;2.80;;;4.40;99.90;;;4.95;68.61;98190.78;5171670;28;20241;-66
2022/02/06 03:42:33;;;;;;;3.93;2.30;;;4.30;99.90;;;5.03;68.40;98195.59;5174299;28;20593;-66
2022/02/06 03:45:10;;;;;;;3.40;3.10;;;4.40;99.90;;;5.05;67.99;98189.00;5174955;28;20225;-66
2022/02/06 03:47:50;;;;;;;7.27;3.13;;;4.50;99.90;;;5.15;67.59;98189.00;5174239;28;20229;-65
2022/02/06 03:50:32;;;;;;;6.90;3.37;;;4.50;99.90;;;5.08;68.34;98186.72;5168857;28;20229;-66
2022/02/06 03:53:05;;;;;;;4.87;3.53;;;4.60;99.90;;;5.10;67.95;98192.81;5172966;28;20232;-66
2022/02/06 03:55:38;;;;;;;5.63;3.00;;;4.60;99.90;;;5.11;68.05;98189.50;5173857;28;20222;-66
2022/02/06 03:58:13;;;;;;;5.37;2.80;;;4.60;99.90;;;5.08;67.96;98190.13;5173839;28;20620;-67
2022/02/06 04:00:46;;;;;;;4.20;3.10;;;4.60;99.90;;;5.12;67.88;98186.22;5166215;28;20228;-64
2022/02/06 04:03:19;;;;;;;5.70;3.10;;;4.50;99.90;;;5.14;67.63;98175.44;5172538;28;20250;-66
2022/02/06 04:05:53;;;;;;;5.13;2.90;;;4.50;99.90;;;5.09;67.73;98186.84;5172799;28;20607;-66
2022/02/06 04:08:28;;;;;;;5.90;2.80;;;4.50;99.90;;;5.06;67.61;98186.59;5175686;28;20223;-65
2022/02/06 04:11:05;;;;;;;4.93;2.87;;;4.50;99.90;;;5.12;68.39;98181.13;5175992;28;20241;-64
2022/02/06 04:13:53;;;;;;;7.07;3.30;;;4.60;99.90;;;5.16;67.96;98181.53;5172139;28;20223;-66
2022/02/06 04:16:38;;;;;;;5.60;3.07;;;4.50;99.90;;;5.20;67.41;98175.06;5169020;28;20707;-66
2022/02/06 04:19:20;;;;;;;3.47;3.10;;;4.70;99.90;;;5.11;67.97;98165.06;5178432;28;20564;-66
2022/02/06 04:21:54;;;;;;;5.60;2.63;;;4.60;99.90;;;5.17;67.67;98167.22;5172247;28;20225;-66
2022/02/06 04:24:27;;;;;;;6.13;3.50;;;4.60;99.90;;;5.04;67.87;98161.91;5173428;28;20220;-65
2022/02/06 04:27:00;;;;;;;4.43;2.90;;;4.60;99.90;;;5.11;68.14;98152.38;5171002;28;20229;-64
2022/02/06 04:29:35;;;;;;;3.40;2.80;;;4.60;99.90;;;5.19;67.82;98151.38;5165812;28;20667;-64
2022/02/06 04:32:09;;;;;;;4.40;2.43;;;4.60;99.90;;;5.18;67.77;98166.47;5168595;28;20720;-64
2022/02/06 04:34:42;;;;;;;5.50;3.03;;;4.70;99.90;;;5.10;68.50;98159.88;5171580;28;20286;-64
2022/02/06 04:37:23;;;;;;;5.43;3.17;;;4.60;99.90;;;4.97;68.65;98151.25;5164472;28;20230;-64
2022/02/06 04:43:07;;;;;;;4.07;3.07;;;4.60;99.90;;;5.12;68.30;98144.06;5165431;28;20226;-64
2022/02/06 04:49:24;;;;;;;5.43;3.50;;;4.60;99.90;;;5.11;67.62;98154.03;5258445;27;20624;-64
2022/02/06 05:15:04;;;;;;;3.17;2.87;;;4.70;99.90;;;5.28;66.99;98118.31;5214787;28;20231;-66
2022/02/06 05:17:58;;;;;;;3.80;2.73;;;4.60;99.90;;;5.18;67.00;98114.16;5211528;28;20228;-65
2022/02/06 05:20:57;;;;;;;4.03;2.83;;;4.60;99.90;;;5.16;67.89;98115.66;5210484;28;20259;-66
2022/02/06 05:23:50;;;;;;;4.43;3.00;;;4.60;99.90;;;5.20;67.23;98106.66;5208536;28;20230;-65
2022/02/06 05:29:22;;;;;;;3.60;2.80;;;4.70;99.90;;;5.10;67.16;98106.69;5217608;28;20225;-66
2022/02/06 05:32:12;;;;;;;5.13;3.00;;;4.60;99.90;;;5.02;67.42;98100.09;5212812;28;20690;-65
2022/02/06 05:34:45;;;;;;;3.43;2.97;;;4.50;99.90;;;5.15;67.57;98110.44;5218177;28;20225;-65
2022/02/06 05:37:20;;;;;;;3.63;3.33;;;4.70;99.90;;;5.14;67.61;98113.75;5216717;28;20243;-65
2022/02/06 05:39:55;;;;;;;4.83;2.70;;;4.60;99.90;;;5.02;68.01;98126.31;5212826;28;20225;-65
2022/02/06 05:42:28;;;;;;;5.70;3.77;;;4.60;99.90;;;5.15;67.34;98121.50;5213419;28;20232;-65
2022/02/06 05:45:01;;;;;;;5.80;2.77;;;4.60;99.90;;;5.12;67.44;98127.94;5214940;28;20267;-66
2022/02/06 05:47:34;;;;;;;3.43;3.13;;;4.60;99.90;;;5.20;67.31;98132.00;5215446;28;20274;-65
2022/02/06 05:50:09;;;;;;;5.70;3.40;;;4.60;99.90;;;5.21;67.39;98123.66;5216741;28;20232;-65
2022/02/06 05:52:42;;;;;;;3.60;2.97;;;4.50;99.90;;;5.20;67.88;98130.34;5215662;28;20236;-65
2022/02/06 05:55:17;;;;;;;4.50;2.93;;;4.50;99.90;;;5.15;68.04;98133.25;5212337;28;20552;-65
2022/02/06 05:57:51;;;;;;;4.03;2.90;;;4.40;99.90;;;5.15;68.11;98130.72;5216317;28;20221;-66
2022/02/06 06:00:24;;;;;;;3.97;2.83;;;4.40;99.90;;;5.29;67.76;98127.66;5198111;28;20609;-65
2022/02/06 06:02:57;;;;;;;4.77;2.97;;;4.50;99.90;;;5.27;68.05;98136.81;5204358;28;20228;-65
2022/02/06 06:05:30;;;;;;;4.03;2.70;;;4.50;99.90;;;5.30;67.92;98134.53;5195150;28;20435;-65
2022/02/06 06:08:04;;;;;;;5.00;3.17;;;4.50;99.90;;;5.28;68.00;98125.91;5190046;28;20226;-66
2022/02/06 06:10:39;;;;;;;5.93;2.73;;;4.50;99.90;;;5.22;67.61;98122.88;5198861;28;20223;-66
2022/02/06 06:13:12;;;;;;;3.97;3.10;;;4.50;99.90;;;5.22;68.50;98112.75;5199791;28;20228;-65
2022/02/06 06:15:45;;;;;;;3.50;3.13;;;4.50;99.90;;;5.18;68.83;98115.81;5200148;28;20226;-65
2022/02/06 06:18:18;;;;;;;3.83;3.00;;;4.40;99.90;;;5.17;68.52;98109.81;5199490;28;20681;-65
2022/02/06 06:20:52;;;;;;;3.43;2.67;;;4.40;99.90;;;5.43;67.99;98094.19;5198397;28;20217;-66
2022/02/06 06:23:25;;;;;;;4.53;2.83;;;4.50;99.90;;;5.46;67.78;98080.00;5194371;28;20313;-65
2022/02/06 06:26:00;;;;;;;3.50;3.20;;;4.60;99.90;;;5.51;66.51;98083.78;5199848;28;20218;-65
2022/02/06 06:28:33;;;;;;;3.97;2.73;;;4.80;99.90;;;5.50;66.34;98082.03;5197546;28;20222;-65
2022/02/06 06:31:06;;;;;;;3.37;3.10;;;4.80;99.90;;;5.46;66.61;98090.13;5200148;28;20709;-65
2022/02/06 06:33:39;;;;;;;5.77;2.87;;;4.80;99.90;;;5.50;67.17;98089.63;5198765;28;20226;-65
2022/02/06 06:36:13;;;;;;;3.80;2.63;;;4.80;99.90;;;5.60;66.36;98069.31;5200219;28;20228;-65
2022/02/06 06:38:46;;;;;;;4.57;3.03;;;4.80;99.90;;;5.59;66.10;98077.69;5201905;28;20224;-65
2022/02/06 06:41:21;;;;;;;3.73;3.00;;;4.80;99.90;;;5.54;66.42;98096.72;5218547;22;20221;-76
2022/02/06 06:43:54;;;;;;;3.47;2.87;;;4.80;99.90;;;5.51;66.35;98076.19;5222016;28;20231;-76
2022/02/06 06:46:27;;;;;;;3.93;2.90;;;4.80;99.90;;;5.57;67.15;98076.69;5214886;28;20221;-76
2022/02/06 06:49:00;;;;;;;3.63;3.33;;;4.80;99.90;;;5.59;66.50;98076.03;5203900;28;20221;-76
2022/02/06 06:51:33;;;;;;;4.03;2.93;;;4.80;99.90;;;5.60;66.31;98070.19;5202666;28;20228;-77
2022/02/06 06:54:12;;;;;;;4.10;3.10;;;4.80;99.90;;;5.73;65.70;98056.84;5244693;22;20225;-64
2022/02/06 06:56:53;;;;;;;4.03;2.90;;;4.90;99.90;;;5.55;66.84;98053.75;5237881;28;20217;-63
2022/02/06 06:59:31;;;;;;;4.23;3.10;;;4.80;99.90;;;5.58;65.98;98042.94;5247496;28;20212;-63
2022/02/06 07:02:17;;;;;;;3.77;3.30;;;4.80;99.90;;;5.53;66.18;98029.03;5233252;28;20276;-63
2022/02/06 07:04:54;;;;;;;4.30;3.23;;;4.70;99.90;;;5.52;66.56;98029.78;5225589;28;20687;-63
2022/02/06 07:07:27;;;;;;;4.40;3.00;;;4.60;99.90;;;5.65;66.09;98015.66;5226374;28;20229;-65
2022/02/06 07:10:02;;;;;;;3.57;3.17;;;4.70;99.90;;;5.61;66.28;98016.22;5224042;28;20229;-64
2022/02/06 07:12:36;;;;;;;3.67;3.20;;;4.80;99.90;;;5.61;66.02;98020.41;5224852;28;20777;-64
2022/02/06 07:15:10;;;;;;;3.17;2.87;;;4.90;99.90;;;5.59;66.45;98027.00;5224805;28;20691;-70
2022/02/06 07:17:44;;;;;;;3.53;2.70;;;4.90;99.90;;;5.48;67.23;98021.06;5221213;28;20250;-66
2022/02/06 07:20:17;;;;;;;11.20;7.50;;;4.80;99.90;;;5.63;66.86;98014.66;5221409;28;20277;-66
2022/02/06 07:22:50;;;;;;;4.97;4.10;;;4.80;99.90;;;5.61;67.28;98012.78;5223648;28;20221;-66
2022/02/06 07:25:25;;;;;;;5.77;4.23;;;4.80;99.90;;;5.66;66.36;98019.09;5221793;28;20232;-66
2022/02/06 07:27:59;;;;;;;3.77;3.00;;;4.90;99.90;;;5.65;66.82;98009.72;5223621;28;20709;-65
2022/02/06 07:30:33;;;;;;;4.03;3.10;;;5.00;99.90;;;5.63;66.60;98007.03;5223571;28;20757;-65
2022/02/06 07:33:06;;;;;;;4.03;3.63;;;4.90;99.90;;;5.66;66.55;97986.13;5224541;28;20780;-66
2022/02/06 07:35:39;;;;;;;5.37;3.00;;;4.90;99.90;;;5.64;66.98;97987.69;5224034;28;20221;-65
2022/02/06 07:38:14;;;;;;;3.10;2.80;;;5.00;99.90;;;5.81;66.06;97981.38;5222173;28;20217;-65
2022/02/06 07:40:47;;;;;;;6.20;3.30;;;5.00;99.90;;;5.87;65.49;97974.22;5219461;28;20303;-64
2022/02/06 07:43:22;;;;;;;4.30;3.53;;;5.20;99.90;;;5.78;65.57;97969.34;5223314;28;20217;-66
2022/02/06 07:45:55;;;;;;;5.30;3.63;;;5.20;99.90;;;5.82;65.76;97960.31;5224962;28;20225;-65
2022/02/06 07:48:28;;;;;;;4.13;2.87;;;5.30;99.90;;;5.81;66.03;97951.81;5222715;28;20704;-65
2022/02/06 07:51:02;;;;;;;3.87;3.00;;;5.30;99.90;;;5.95;66.14;97960.53;5222929;28;20702;-65
2022/02/06 07:53:35;;;;;;;5.90;3.30;;;5.30;99.90;;;6.00;65.42;97964.28;5222694;28;20240;-64
2022/02/06 07:56:09;;;;;;;4.93;2.70;;;5.30;99.90;;;5.92;65.85;97949.19;5223976;28;20221;-64
2022/02/06 07:58:43;;;;;;;3.83;3.03;;;5.30;99.90;;;6.00;65.31;97938.03;5222287;28;20220;-66
2022/02/06 08:01:16;;;;;;;3.50;2.93;;;5.40;99.90;;;6.08;65.81;97950.53;5222871;28;20224;-65
2022/02/06 08:03:49;;;;;;;4.40;3.17;;;5.40;99.90;;;6.11;64.99;97942.25;5223744;28;20220;-65
2022/02/06 08:06:22;;;;;;;3.80;2.87;;;5.40;99.90;;;6.14;65.26;97932.34;5217964;28;20225;-65
2022/02/06 08:08:56;;;;;;;5.20;3.33;;;5.50;99.90;;;6.23;65.36;97922.00;5223375;28;20231;-66
2022/02/06 08:11:29;;;;;;;3.40;3.03;;;5.60;99.90;;;6.26;64.98;97938.31;5224100;28;20221;-67
2022/02/06 08:14:04;;;;;;;4.77;2.63;;;5.60;99.90;;;6.35;64.83;97929.63;5224309;28;20236;-65
2022/02/06 08:16:37;;;;;;;4.20;3.07;;;5.60;99.90;;;6.41;64.90;97932.63;5223757;28;20223;-66
2022/02/06 08:19:10;;;;;;;3.60;3.00;;;5.80;99.90;;;6.41;65.44;97927.53;5224033;28;20217;-66
2022/02/06 08:21:43;;;;;;;3.10;2.90;;;5.70;99.90;;;6.53;64.07;97918.31;5219767;28;20221;-66
2022/02/06 08:24:16;;;;;;;3.83;3.27;;;5.90;99.90;;;6.45;65.00;97919.41;5223481;28;20708;-66
2022/02/06 08:26:49;;;;;;;3.47;3.13;;;5.80;99.90;;;6.71;64.32;97909.47;5224560;28;20228;-66
2022/02/06 08:29:25;;;;;;;4.90;3.47;;;5.90;99.90;;;6.62;64.87;97901.19;5222569;28;20220;-67
2022/02/06 08:31:59;;;;;;;15.70;11.50;;;5.80;99.90;;;6.60;64.00;97905.28;5222788;28;20278;-66
2022/02/06 08:34:33;;;;;;;6.63;5.93;;;5.90;99.90;;;6.72;63.90;97901.09;5224114;28;20230;-66
2022/02/06 08:37:07;;;;;;;7.37;5.20;;;5.90;99.90;;;6.83;63.37;97898.44;5220012;28;20223;-65
2022/02/06 08:39:41;;;;;;;6.13;3.40;;;6.00;99.90;;;6.84;64.73;97888.41;5222187;28;20217;-65
2022/02/06 08:42:16;;;;;;;4.47;3.23;;;6.10;99.90;;;6.93;63.74;97886.50;5218942;28;20212;-66
2022/02/06 08:44:50;;;;;;;6.27;4.00;;;6.10;99.90;;;6.94;62.61;97878.09;5223027;28;20223;-65
2022/02/06 08:47:23;;;;;;;4.53;3.37;;;6.20;99.90;;;6.86;63.09;97880.88;5223459;28;20218;-65
2022/02/06 08:49:56;;;;;;;4.13;2.93;;;6.20;99.90;;;6.87;63.37;97877.59;5220744;28;20224;-66
2022/02/06 08:52:29;;;;;;;4.37;2.80;;;6.10;99.90;;;6.83;63.20;97883.19;5219486;28;20225;-66
2022/02/06 08:55:08;;;;;;;5.83;3.07;;;6.20;99.90;;;6.88;62.67;97876.78;5223743;28;20236;-65
2022/02/06 08:57:47;;;;;;;3.37;3.00;;;6.20;99.90;;;6.81;63.88;97867.88;5220602;28;20225;-65
2022/02/06 09:00:24;;;;;;;6.40;3.10;;;6.10;99.90;;;6.75;63.92;97882.63;5223252;28;20571;-66
2022/02/06 09:02:57;;;;;;;4.77;3.00;;;6.20;99.90;;;6.83;63.86;97867.97;5223521;28;20232;-66
2022/02/06 09:05:30;;;;;;;3.10;2.87;;;6.20;99.90;;;6.85;63.79;97866.41;5223402;28;20236;-65
2022/02/06 09:08:05;;;;;;;2.90;2.67;;;6.20;99.90;;;6.92;62.94;97869.47;5221807;28;20642;-66
2022/02/06 09:10:38;;;;;;;4.80;3.43;;;6.30;99.90;;;6.97;63.03;97874.91;5220715;28;20714;-65
2022/02/06 09:13:11;;;;;;;5.63;3.43;;;6.40;99.90;;;7.09;63.41;97862.19;5219774;28;20230;-66
2022/02/06 09:15:46;;;;;;;5.53;3.40;;;6.40;99.90;;;7.16;62.90;97869.47;5221474;28;20308;-66
2022/02/06 09:18:19;;;;;;;7.93;4.60;;;6.40;99.90;;;7.18;62.66;97862.81;5221881;28;20672;-66
2022/02/06 09:20:52;;;;;;;8.87;7.97;;;6.50;99.90;;;7.15;63.00;97865.13;5222493;28;20220;-66
2022/02/06 09:23:25;;;;;;;6.50;6.00;;;6.50;99.90;;;7.27;62.86;97839.69;5222928;28;20236;-64
2022/02/06 09:25:58;;;;;;;8.37;7.47;;;6.60;99.90;;;7.30;62.54;97838.28;5223595;28;20221;-66
2022/02/06 09:28:31;;;;;;;4.40;3.90;;;6.60;99.90;;;7.24;62.83;97842.94;5222106;28;20589;-67
2022/02/06 09:31:06;;;;;;;3.50;3.20;;;6.60;99.90;;;7.28;63.11;97829.66;5224151;28;20690;-66
2022/02/06 09:36:11;;;;;;;6.17;3.27;;;6.70;99.90;;;7.37;62.96;97835.34;5225719;28;20221;-66
2022/02/06 09:38:44;;;;;;;3.23;2.87;;;6.70;99.90;;;7.37;62.98;97824.31;5225194;28;20217;-66
2022/02/06 09:41:19;;;;;;;4.10;3.30;;;6.70;99.90;;;7.34;63.16;97819.91;5225850;28;20216;-66
2022/02/06 09:43:55;;;;;;;4.67;3.30;;;6.60;99.90;;;7.37;63.31;97825.19;5224592;28;20223;-66
2022/02/06 09:46:51;;;;;;;4.00;3.20;;;6.60;99.90;;;7.46;62.35;97812.22;5219698;28;20221;-66
2022/02/06 09:49:24;;;;;;;3.97;2.83;;;6.70;99.90;;;7.44;63.40;97796.00;5220698;28;20718;-66
2022/02/06 09:51:58;;;;;;;4.57;2.80;;;6.80;99.90;;;7.49;62.94;97812.41;5225661;28;20228;-66
2022/02/06 09:54:31;;;;;;;3.70;2.97;;;6.80;99.90;;;7.59;62.20;97794.47;5222604;28;20225;-66
2022/02/06 09:57:11;;;;;;;6.10;2.93;;;6.90;99.90;;;7.65;62.17;97787.25;5220408;28;20217;-66
2022/02/06 09:59:44;;;;;;;3.93;3.27;;;6.90;99.90;;;7.67;62.15;97765.34;5224586;28;20727;-66
2022/02/06 10:02:19;;;;;;;5.40;2.97;;;7.00;99.90;;;7.70;61.97;97779.03;5224700;28;20217;-66
2022/02/06 10:04:54;;;;;;;4.87;3.50;;;7.10;99.90;;;7.81;61.91;97784.09;5224410;28;20604;-66
2022/02/06 10:07:37;;;;;;;3.53;2.67;;;7.10;99.90;;;7.80;61.53;97768.69;5225172;28;20228;-66
2022/02/06 10:10:12;;;;;;;2.93;2.60;;;7.10;99.90;;;7.84;62.13;97763.03;5224022;28;20241;-68
2022/02/06 10:12:47;;;;;;;4.80;2.90;;;7.00;99.90;;;7.80;61.12;97753.44;5224752;28;20227;-67
2022/02/06 10:15:21;;;;;;;3.50;3.00;;;7.10;99.90;;;7.83;61.39;97746.00;5224680;28;20225;-67
2022/02/06 10:17:56;;;;;;;3.97;2.70;;;7.20;99.90;;;7.88;61.52;97742.09;5226204;28;20687;-68
2022/02/06 10:20:32;;;;;;;4.63;3.13;;;7.10;99.90;;;7.90;61.50;97740.56;5223028;28;20217;-67
2022/02/06 10:23:09;;;;;;;3.87;3.33;;;7.20;99.90;;;7.92;61.34;97721.16;5224026;28;20216;-67
2022/02/06 10:25:47;;;;;;;3.80;2.63;;;7.30;99.90;;;7.93;61.29;97730.56;5224450;28;20229;-67
2022/02/06 10:28:35;;;;;;;4.10;2.40;;;7.30;99.90;;;7.95;61.02;97705.19;5219921;28;20220;-67
2022/02/06 10:31:09;;;;;;;5.97;3.23;;;7.30;99.90;;;7.99;61.26;97709.72;5223123;28;20225;-66
2022/02/06 10:33:46;;;;;;;4.93;2.97;;;7.30;99.90;;;8.06;60.76;97705.09;5224032;28;20217;-67
2022/02/06 10:36:36;;;;;;;3.23;2.70;;;7.40;99.90;;;8.07;61.00;97691.63;5221861;28;20220;-66
2022/02/06 10:39:10;;;;;;;4.23;2.90;;;7.40;99.90;;;7.99;60.01;97684.28;5224260;28;20229;-65
2022/02/06 10:41:46;;;;;;;3.50;2.70;;;7.50;99.90;;;7.98;60.33;97677.41;5222676;28;20232;-68
2022/02/06 10:44:20;;;;;;;3.13;2.67;;;7.40;99.90;;;7.98;60.73;97670.66;5223572;28;20209;-67
2022/02/06 10:46:56;;;;;;;5.90;3.00;;;7.40;99.90;;;7.94;60.78;97662.75;5223567;28;20232;-67
2022/02/06 10:49:30;;;;;;;3.77;2.57;;;7.40;99.90;;;7.98;60.54;97660.47;5218227;28;20602;-66
2022/02/06 10:52:05;;;;;;;3.60;2.77;;;7.40;99.90;;;7.98;60.86;97660.47;5221826;28;20231;-67
2022/02/06 10:54:39;;;;;;;4.93;2.90;;;7.50;99.90;;;7.97;60.96;97668.91;5223515;28;20236;-67
2022/02/06 10:57:14;;;;;;;3.87;2.43;;;7.50;99.90;;;8.15;60.71;97658.13;5223659;28;20217;-67
2022/02/06 10:59:52;;;;;;;2.73;2.50;;;7.50;99.90;;;8.18;60.81;97650.66;5221594;28;20221;-66
2022/02/06 11:02:28;;;;;;;2.77;2.53;;;7.50;99.90;;;8.13;60.99;97653.81;5226058;28;20659;-67
2022/02/06 11:05:12;;;;;;;3.10;2.80;;;7.50;99.90;;;8.31;60.08;97648.13;5223524;28;20221;-66
2022/02/06 11:07:54;;;;;;;3.87;3.00;;;7.50;99.90;;;8.17;60.53;97642.16;5222096;28;20225;-66
2022/02/06 11:10:30;;;;;;;3.40;3.10;;;7.50;99.90;;;8.26;60.32;97637.63;5222763;28;20367;-68
2022/02/06 11:13:06;;;;;;;3.40;2.90;;;7.60;99.90;;;8.28;60.18;97630.09;5223554;28;20228;-66
2022/02/06 11:15:46;;;;;;;3.43;3.03;;;7.70;99.90;;;8.29;60.11;97616.56;5219572;28;20259;-67
2022/02/06 11:18:23;;;;;;;3.73;2.83;;;7.70;99.90;;;8.30;60.52;97614.13;5221935;28;20220;-67
2022/02/06 11:21:00;;;;;;;3.70;3.40;;;7.70;99.90;;;8.31;60.44;97604.84;5222886;28;20213;-66
2022/02/06 11:23:51;;;;;;;5.83;3.37;;;7.70;99.90;;;8.25;60.64;97601.91;5224551;28;20216;-66
2022/02/06 11:26:27;;;;;;;3.80;2.83;;;7.60;99.90;;;8.30;60.24;97583.59;5222444;28;20228;-66
2022/02/06 11:29:02;;;;;;;5.10;3.10;;;7.60;99.90;;;8.31;60.37;97580.25;5223876;28;20232;-67
2022/02/06 11:31:36;;;;;;;4.10;3.67;;;7.70;99.90;;;8.32;60.96;97566.72;5222057;28;20217;-67
2022/02/06 11:34:12;;;;;;;3.93;3.53;;;7.50;99.90;;;8.21;61.12;97572.84;5224891;28;20221;-66
2022/02/06 11:46:23;;;;;;;3.37;2.83;;;7.60;99.90;;;8.46;60.63;97533.59;5206111;28;20213;-66
2022/02/06 11:49:10;;;;;;;3.27;3.00;;;7.70;99.90;;;8.43;60.34;97533.41;5220962;28;20221;-68
2022/02/06 11:51:53;;;;;;;3.10;2.40;;;7.70;99.90;;;8.45;60.49;97526.75;5221945;28;20236;-67
2022/02/06 11:54:31;;;;;;;4.13;2.70;;;7.70;99.90;;;8.54;60.70;97517.13;5221770;28;20221;-67
2022/02/06 11:57:26;;;;;;;3.10;2.50;;;7.70;99.90;;;8.51;60.91;97511.84;5222396;28;20221;-68
2022/02/06 12:00:18;;;;;;;4.87;2.67;;;7.60;99.90;;;8.50;60.61;97505.88;5219588;28;20232;-68
2022/02/06 12:02:51;;;;;;;3.23;2.47;;;7.70;99.90;;;8.45;60.85;97497.06;5221717;28;20221;-67
2022/02/06 12:05:27;;;;;;;3.20;2.90;;;7.80;99.90;;;8.49;60.64;97488.81;5221696;28;20260;-67
2022/02/06 12:08:10;;;;;;;3.27;2.50;;;7.80;99.90;;;8.39;61.03;97488.19;5226557;28;20216;-66
2022/02/06 12:11:14;;;;;;;2.73;2.53;;;7.80;99.90;;;8.51;60.77;97471.97;5221000;28;20221;-67
2022/02/06 12:13:47;;;;;;;5.00;3.20;;;7.80;99.90;;;8.55;60.29;97463.69;5217919;28;20224;-66
2022/02/06 12:16:29;;;;;;;2.40;2.20;;;7.90;99.90;;;8.59;61.03;97471.56;5221774;28;20612;-66
2022/02/06 12:19:26;;;;;;;3.17;2.80;;;7.90;99.90;;;8.59;60.79;97461.34;5220630;28;20225;-67
2022/02/06 12:22:44;;;;;;;4.03;2.60;;;7.90;99.90;;;8.54;61.48;97446.66;5222763;28;20217;-67
2022/02/06 12:25:26;;;;;;;3.13;2.80;;;7.90;99.90;;;8.59;61.31;97443.53;5218607;28;20647;-67
2022/02/06 12:28:27;;;;;;;4.90;3.40;;;7.90;99.90;;;8.66;61.61;97431.22;5221493;28;20587;-68
2022/02/06 12:31:27;;;;;;;4.27;2.60;;;7.90;99.90;;;8.68;61.59;97426.22;5220954;28;20221;-68
2022/02/06 12:34:11;;;;;;;4.57;3.00;;;7.90;99.90;;;8.72;61.58;97416.28;5222350;28;20216;-67
2022/02/06 12:37:06;;;;;;;4.23;2.50;;;7.90;99.90;;;8.63;61.54;97409.78;5219830;28;20221;-66
2022/02/06 12:39:42;;;;;;;2.33;2.17;;;8.00;99.90;;;8.66;61.07;97412.50;5223900;28;20236;-67